Time;durP1;ratioP1;P1;durP2;ratioP2;P2;SDS_P1;SDS_P2;PMS_P1;PMS_P2;Temp;Humidity;BMP_temperature;BMP_pressure;BME280_temperature;BME280_humidity;BME280_pressure;Samples;Min_cycle;Max_cycle;Signal;HPM_P1;HPM_P2
2023/04/02 00:01:00;;;;;;;15.05;9.07;;;;;;;7.06;100.00;101311.53;5035082;28;20037;-62
2023/04/02 00:03:52;;;;;;;16.25;8.90;;;;;;;6.97;100.00;101332.59;5029948;28;20033;-63
2023/04/02 00:06:32;;;;;;;16.40;9.23;;;;;;;6.94;100.00;101324.75;5033924;28;20040;-63
2023/04/02 00:09:03;;;;;;;14.55;8.00;;;;;;;6.81;100.00;101332.75;5050624;28;20119;-63
2023/04/02 00:11:34;;;;;;;12.57;8.57;;;;;;;6.92;100.00;101334.38;5033459;28;20044;-64
2023/04/02 00:14:00;;;;;;;16.90;8.90;;;;;;;6.91;100.00;101335.28;5029011;28;20191;-64
2023/04/02 00:16:26;;;;;;;13.35;8.70;;;;;;;6.87;100.00;101342.31;5055635;28;20534;-63
2023/04/02 00:18:57;;;;;;;23.35;10.43;;;;;;;6.91;100.00;101337.88;5069780;28;20037;-63
2023/04/02 00:21:26;;;;;;;13.30;8.65;;;;;;;7.02;100.00;101346.53;5029183;28;20049;-63
2023/04/02 00:23:56;;;;;;;17.50;9.40;;;;;;;6.85;100.00;101343.19;5012139;28;20113;-62
2023/04/02 00:26:29;;;;;;;15.48;9.77;;;;;;;6.82;100.00;101354.56;5017823;28;20044;-64
2023/04/02 00:28:54;;;;;;;15.70;9.63;;;;;;;6.93;100.00;101362.34;5049521;28;20095;-63
2023/04/02 00:31:20;;;;;;;16.60;9.07;;;;;;;6.86;100.00;101360.66;5046310;28;20021;-64
2023/04/02 00:33:47;;;;;;;16.77;9.90;;;;;;;6.79;100.00;101375.56;5048506;28;20075;-63
2023/04/02 00:36:12;;;;;;;15.35;9.23;;;;;;;6.75;100.00;101368.63;5018102;28;20185;-62
2023/04/02 00:38:42;;;;;;;17.20;8.65;;;;;;;6.83;100.00;101364.16;5051364;28;20473;-63
2023/04/02 00:41:13;;;;;;;16.27;8.75;;;;;;;6.68;100.00;101373.03;5065156;28;20086;-63
2023/04/02 00:43:43;;;;;;;14.10;8.90;;;;;;;6.67;100.00;101376.53;5048825;28;20108;-62
2023/04/02 00:46:29;;;;;;;15.55;8.73;;;;;;;6.67;100.00;101381.78;5030846;28;20029;-63
2023/04/02 00:49:07;;;;;;;14.82;8.85;;;;;;;6.89;100.00;101392.06;5047913;28;20025;-64
2023/04/02 00:51:41;;;;;;;17.03;8.83;;;;;;;6.79;100.00;101397.38;5031968;28;20024;-63
2023/04/02 00:54:09;;;;;;;20.50;8.45;;;;;;;6.68;100.00;101384.38;5028717;28;20305;-63
2023/04/02 00:56:38;;;;;;;15.27;8.63;;;;;;;6.73;100.00;101407.03;5010732;28;20025;-63
2023/04/02 00:59:11;;;;;;;17.98;8.90;;;;;;;6.68;100.00;101407.94;5010192;28;20033;-62
2023/04/02 01:01:41;;;;;;;16.25;8.98;;;;;;;6.73;100.00;101415.78;5011360;28;20132;-63
2023/04/02 01:06:52;;;;;;;11.93;7.80;;;;;;;6.91;100.00;101419.09;5027912;22;20115;-63
2023/04/02 01:09:46;;;;;;;13.98;9.13;;;;;;;6.99;100.00;101425.16;5010496;28;20459;-63
2023/04/02 01:12:12;;;;;;;16.67;7.55;;;;;;;6.90;100.00;101430.47;4997335;28;20068;-64
2023/04/02 01:14:44;;;;;;;17.25;8.77;;;;;;;6.80;100.00;101432.28;5025973;28;20460;-63
2023/04/02 01:17:29;;;;;;;13.40;8.27;;;;;;;6.78;100.00;101428.84;5028944;28;20029;-64
2023/04/02 01:20:21;;;;;;;15.25;6.82;;;;;;;6.66;100.00;101442.91;4990741;28;20500;-63
2023/04/02 01:23:04;;;;;;;15.25;7.18;;;;;;;6.63;100.00;101440.31;4996730;28;20048;-63
2023/04/02 01:26:03;;;;;;;18.50;8.38;;;;;;;6.48;100.00;101451.75;5027252;28;20120;-63
2023/04/02 01:28:53;;;;;;;14.65;7.18;;;;;;;6.54;100.00;101439.47;4996242;28;20049;-64
2023/04/02 01:31:20;;;;;;;12.57;7.72;;;;;;;6.54;100.00;101447.34;5008126;28;20061;-63
2023/04/02 01:33:46;;;;;;;11.18;6.90;;;;;;;6.49;100.00;101451.75;4989606;28;20026;-62
2023/04/02 01:36:33;;;;;;;14.18;7.55;;;;;;;6.47;100.00;101458.72;5010028;28;20030;-63
2023/04/02 01:39:20;;;;;;;12.32;7.22;;;;;;;6.62;100.00;101455.13;4998019;28;20088;-64
2023/04/02 01:41:45;;;;;;;14.63;7.45;;;;;;;6.73;100.00;101476.03;5019931;28;20029;-63
2023/04/02 01:44:16;;;;;;;15.95;7.57;;;;;;;6.52;100.00;101477.91;5026777;28;20028;-63
2023/04/02 01:46:41;;;;;;;15.75;7.75;;;;;;;6.53;100.00;101477.03;4997440;28;20036;-64
2023/04/02 01:49:13;;;;;;;12.55;7.63;;;;;;;6.49;100.00;101480.53;5008536;28;20544;-64
2023/04/02 01:51:42;;;;;;;10.30;6.70;;;;;;;6.51;100.00;101491.88;4991343;28;20399;-64
2023/04/02 01:54:08;;;;;;;;;;;;;;;6.57;100.00;101486.59;5008554;28;20033;-62
2023/04/02 01:56:34;;;;;;;8.82;6.68;;;;;;;6.51;100.00;101497.13;4990073;28;19913;-65
2023/04/02 01:59:01;;;;;;;11.80;6.95;;;;;;;6.64;100.00;101499.66;4990194;28;20388;-65
2023/04/02 02:01:32;;;;;;;10.57;6.55;;;;;;;6.72;100.00;101502.22;4991468;28;20104;-64
2023/04/02 02:03:58;;;;;;;12.65;7.35;;;;;;;6.66;100.00;101506.63;5007843;28;20026;-64
2023/04/02 02:06:23;;;;;;;10.32;6.75;;;;;;;6.56;100.00;101507.53;4989885;28;20049;-63
2023/04/02 02:08:53;;;;;;;9.07;6.57;;;;;;;6.36;100.00;101515.53;5006894;28;20408;-64
2023/04/02 02:11:22;;;;;;;11.75;7.53;;;;;;;6.41;100.00;101519.00;4990651;28;20607;-64
2023/04/02 02:13:51;;;;;;;11.50;6.95;;;;;;;6.37;100.00;101522.50;5008090;28;20026;-64
2023/04/02 02:16:16;;;;;;;;;;;;;;;6.37;100.00;101527.72;5008231;28;20540;-63
2023/04/02 02:18:43;;;;;;;10.13;5.85;;;;;;;6.23;100.00;101533.06;5008244;28;20009;-63
2023/04/02 02:21:09;;;;;;;9.35;6.60;;;;;;;6.24;100.00;101540.03;5008233;28;20029;-64
2023/04/02 02:23:34;;;;;;;10.00;6.15;;;;;;;6.27;100.00;101538.28;4990715;28;20041;-63
2023/04/02 02:26:00;;;;;;;11.98;6.70;;;;;;;6.15;100.00;101546.16;4990025;28;20030;-63
2023/04/02 02:28:28;;;;;;;11.43;6.40;;;;;;;6.05;100.00;101545.34;5008905;28;20030;-65
2023/04/02 02:31:16;;;;;;;9.02;6.30;;;;;;;6.24;100.00;101555.72;5025197;28;20022;-64
2023/04/02 02:33:45;;;;;;;12.63;6.28;;;;;;;6.25;100.00;101558.34;5008801;28;20034;-64
2023/04/02 02:36:55;;;;;;;9.55;6.30;;;;;;;6.21;100.00;101563.59;5002861;28;20068;-64
2023/04/02 02:39:24;;;;;;;10.02;6.68;;;;;;;6.28;100.00;101563.56;4988330;28;20065;-63
2023/04/02 02:42:00;;;;;;;6.60;5.40;;;;;;;6.38;100.00;101571.38;5008318;28;20041;-63
2023/04/02 02:44:38;;;;;;;9.30;5.80;;;;;;;6.32;100.00;101569.63;5026872;28;20415;-63
2023/04/02 02:47:09;;;;;;;7.22;5.93;;;;;;;6.16;100.00;101572.31;5006878;28;20407;-63
2023/04/02 02:49:38;;;;;;;7.50;6.03;;;;;;;6.15;100.00;101577.56;4989755;28;20026;-63
2023/04/02 02:52:09;;;;;;;9.63;5.93;;;;;;;6.06;100.00;101589.78;5025628;28;20061;-63
2023/04/02 02:54:41;;;;;;;9.65;6.60;;;;;;;6.11;100.00;101587.16;5027126;28;20026;-63
2023/04/02 02:57:10;;;;;;;9.02;6.25;;;;;;;6.09;100.00;101593.28;5024175;28;20107;-63
2023/04/02 02:59:36;;;;;;;11.68;6.53;;;;;;;6.20;100.00;101601.97;5009397;28;20370;-63
2023/04/02 03:02:02;;;;;;;10.38;6.20;;;;;;;5.97;100.00;101609.84;5024883;28;20026;-65
2023/04/02 03:04:34;;;;;;;11.27;6.15;;;;;;;6.05;100.00;101611.59;5009520;28;20026;-63
2023/04/02 03:07:00;;;;;;;12.48;6.75;;;;;;;6.00;100.00;101620.31;5006136;28;20744;-64
2023/04/02 03:09:39;;;;;;;10.05;7.03;;;;;;;5.99;100.00;101618.56;5009745;28;20037;-63
2023/04/02 03:12:46;;;;;;;12.68;6.85;;;;;;;6.02;100.00;101623.81;5006569;28;20025;-62
2023/04/02 03:15:36;;;;;;;11.20;6.60;;;;;;;5.99;100.00;101635.13;5019213;28;20095;-64
2023/04/02 03:18:06;;;;;;;11.23;6.75;;;;;;;6.13;100.00;101639.50;5009220;28;20060;-63
2023/04/02 03:20:36;;;;;;;10.68;6.53;;;;;;;6.04;100.00;101643.00;4993085;28;20057;-64
2023/04/02 03:23:20;;;;;;;7.95;6.05;;;;;;;5.85;100.00;101652.59;5010971;28;20030;-63
2023/04/02 03:26:07;;;;;;;9.60;6.50;;;;;;;5.79;100.00;101658.72;5017226;28;20025;-63
2023/04/02 03:28:38;;;;;;;12.13;6.90;;;;;;;6.02;100.00;101660.44;5029533;28;20116;-62
2023/04/02 03:31:07;;;;;;;12.50;6.40;;;;;;;6.13;100.00;101665.66;5029441;28;20143;-63
2023/04/02 03:33:41;;;;;;;10.95;6.40;;;;;;;6.04;100.00;101671.78;5030741;28;20028;-63
2023/04/02 03:36:33;;;;;;;10.13;6.30;;;;;;;5.97;100.00;101667.41;5012669;28;20499;-63
2023/04/02 03:39:16;;;;;;;10.05;5.60;;;;;;;5.69;100.00;101678.78;5029795;28;20029;-66
2023/04/02 03:41:49;;;;;;;10.27;5.57;;;;;;;5.51;100.00;101690.09;5029758;28;20034;-63
2023/04/02 03:44:31;;;;;;;11.52;6.57;;;;;;;5.57;100.00;101690.09;5012317;28;20116;-64
2023/04/02 03:47:04;;;;;;;12.25;6.50;;;;;;;5.64;100.00;101699.69;5012385;28;20494;-65
2023/04/02 03:49:37;;;;;;;13.13;7.10;;;;;;;5.56;100.00;101699.69;4993673;28;20038;-64
2023/04/02 03:52:08;;;;;;;11.65;6.47;;;;;;;5.52;100.00;101707.50;4992129;28;20034;-64
2023/04/02 03:54:33;;;;;;;9.32;6.10;;;;;;;5.60;100.00;101720.59;5024277;28;20384;-64
2023/04/02 03:56:59;;;;;;;10.20;7.15;;;;;;;5.49;100.00;101720.56;5010886;28;20032;-65
2023/04/02 03:59:47;;;;;;;8.40;6.38;;;;;;;5.45;100.00;101738.00;5027322;28;20040;-63
2023/04/02 04:02:15;;;;;;;9.45;7.07;;;;;;;5.44;100.00;101746.69;5029112;28;20045;-63
2023/04/02 04:04:42;;;;;;;12.30;6.83;;;;;;;5.52;100.00;101746.72;5017676;28;20138;-63
2023/04/02 04:07:20;;;;;;;14.50;7.25;;;;;;;5.61;100.00;101753.69;4991448;28;20033;-63
2023/04/02 04:09:47;;;;;;;10.77;6.85;;;;;;;5.61;100.00;101759.81;4993622;28;20030;-65
2023/04/02 04:12:37;;;;;;;9.38;6.72;;;;;;;5.63;100.00;101763.28;4991564;28;20037;-62
2023/04/02 04:15:06;;;;;;;11.60;7.18;;;;;;;5.52;100.00;101762.41;5009431;28;20053;-63
2023/04/02 04:17:52;;;;;;;9.88;6.72;;;;;;;5.39;100.00;101758.91;5010513;28;20033;-63
2023/04/02 04:20:23;;;;;;;11.65;6.20;;;;;;;5.48;100.00;101771.97;5009260;28;20038;-63
2023/04/02 04:22:49;;;;;;;10.00;6.60;;;;;;;5.64;100.00;101775.50;4992687;28;20306;-63
2023/04/02 04:25:32;;;;;;;10.77;6.43;;;;;;;5.41;100.00;101778.94;5027984;28;20064;-64
2023/04/02 04:28:09;;;;;;;13.65;7.38;;;;;;;5.39;100.00;101791.13;5029327;28;20031;-64
2023/04/02 04:31:02;;;;;;;10.98;7.80;;;;;;;5.40;100.00;101795.50;5004042;28;20033;-64
2023/04/02 04:33:38;;;;;;;10.70;6.80;;;;;;;5.17;100.00;101800.63;5012453;28;20030;-62
2023/04/02 04:36:05;;;;;;;11.77;6.85;;;;;;;5.37;100.00;101802.44;5007850;28;20603;-62
2023/04/02 04:38:38;;;;;;;8.55;6.55;;;;;;;5.51;100.00;101811.19;5000732;28;20083;-64
2023/04/02 04:41:17;;;;;;;9.00;6.35;;;;;;;5.36;100.00;101816.38;4989381;28;20053;-65
2023/04/02 04:43:47;;;;;;;7.60;5.75;;;;;;;5.22;100.00;101816.31;4996585;28;20407;-63
2023/04/02 04:46:18;;;;;;;9.27;6.32;;;;;;;5.04;100.00;101825.81;5011507;28;20032;-64
2023/04/02 04:48:56;;;;;;;7.40;6.03;;;;;;;5.08;100.00;101822.34;5024910;28;20030;-64
2023/04/02 04:51:24;;;;;;;9.48;5.47;;;;;;;5.14;100.00;101827.63;5000037;28;20088;-64
2023/04/02 04:53:52;;;;;;;11.85;5.80;;;;;;;5.27;100.00;101833.75;5001863;28;20022;-64
2023/04/02 04:56:22;;;;;;;9.52;6.55;;;;;;;5.07;100.00;101836.28;5027571;28;20036;-64
2023/04/02 04:59:02;;;;;;;8.50;6.40;;;;;;;5.01;100.00;101841.47;5029132;28;20111;-64
2023/04/02 05:01:36;;;;;;;8.60;5.53;;;;;;;4.98;100.00;101852.78;5029269;28;20040;-64
2023/04/02 05:04:10;;;;;;;7.68;5.90;;;;;;;4.77;100.00;101857.03;5010961;28;20029;-63
2023/04/02 05:06:55;;;;;;;9.02;5.47;;;;;;;4.57;100.00;101858.63;5028877;28;20046;-65
2023/04/02 05:09:41;;;;;;;9.15;5.72;;;;;;;4.71;100.00;101875.25;5010306;28;20049;-65
2023/04/02 05:12:31;;;;;;;7.38;5.50;;;;;;;4.65;100.00;101875.19;5010142;28;20025;-65
2023/04/02 05:15:00;;;;;;;8.82;5.72;;;;;;;4.52;100.00;101882.06;5028655;28;20017;-65
2023/04/02 05:17:35;;;;;;;11.50;6.05;;;;;;;4.83;100.00;101881.41;5011140;28;20116;-63
2023/04/02 05:20:10;;;;;;;11.13;6.13;;;;;;;4.70;100.00;101883.97;5028440;28;20152;-65
2023/04/02 05:22:46;;;;;;;7.78;5.55;;;;;;;4.64;100.00;101900.41;5010298;28;20025;-63
2023/04/02 05:25:17;;;;;;;7.30;5.45;;;;;;;4.53;100.00;101902.97;5027147;28;20395;-63
2023/04/02 05:27:51;;;;;;;10.15;5.88;;;;;;;4.59;100.00;101911.69;5028494;28;20510;-65
2023/04/02 05:30:22;;;;;;;7.60;5.13;;;;;;;4.52;100.00;101911.63;5027641;28;20029;-63
2023/04/02 05:32:56;;;;;;;8.63;5.00;;;;;;;4.51;100.00;101917.72;5028185;28;20032;-63
2023/04/02 05:35:25;;;;;;;12.00;5.47;;;;;;;4.61;100.00;101925.66;5010699;28;20116;-63
2023/04/02 05:37:51;;;;;;;;;;;;;;;4.49;100.00;101927.28;5010580;28;20056;-64
2023/04/02 05:40:26;;;;;;;10.65;5.53;;;;;;;4.45;100.00;101943.78;5009213;28;19947;-65
2023/04/02 05:42:52;;;;;;;10.75;5.07;;;;;;;4.50;100.00;101938.59;5027858;28;20033;-65
2023/04/02 05:45:33;;;;;;;6.90;4.93;;;;;;;4.45;100.00;101948.13;5009543;28;20079;-62
2023/04/02 05:48:02;;;;;;;9.70;5.03;;;;;;;4.41;100.00;101957.66;5010251;28;20025;-67
2023/04/02 05:50:36;;;;;;;9.50;5.03;;;;;;;4.43;100.00;101959.41;5010249;28;20048;-64
2023/04/02 05:53:32;;;;;;;8.43;5.05;;;;;;;4.48;100.00;101967.28;5026453;28;20031;-64
2023/04/02 05:56:35;;;;;;;13.25;5.57;;;;;;;4.25;100.00;101980.97;5007641;28;20128;-66
2023/04/02 05:59:10;;;;;;;5.75;4.72;;;;;;;4.38;100.00;101986.34;4930456;29;20031;-65
2023/04/02 06:01:39;;;;;;;8.68;5.38;;;;;;;4.38;100.00;101984.59;5004710;28;20104;-65
2023/04/02 06:04:32;;;;;;;10.60;5.63;;;;;;;4.34;100.00;101987.16;5006331;28;20116;-65
2023/04/02 06:07:01;;;;;;;14.75;4.95;;;;;;;4.01;100.00;101985.03;5028089;28;20037;-63
2023/04/02 06:09:37;;;;;;;9.75;5.07;;;;;;;4.08;100.00;102000.78;5011661;28;20104;-64
2023/04/02 06:12:14;;;;;;;7.88;4.65;;;;;;;4.24;100.00;102004.47;5013525;28;20068;-65
2023/04/02 06:14:39;;;;;;;10.32;5.18;;;;;;;4.34;100.00;102021.09;5027340;28;20022;-65
2023/04/02 06:17:05;;;;;;;12.05;4.93;;;;;;;4.19;100.00;102024.41;5026789;28;20033;-64
2023/04/02 06:19:34;;;;;;;8.35;5.03;;;;;;;4.40;100.00;102023.78;5027720;28;20037;-63
2023/04/02 06:22:09;;;;;;;11.45;4.93;;;;;;;4.15;100.00;102041.72;5009669;28;20055;-65
2023/04/02 06:24:36;;;;;;;9.93;4.20;;;;;;;3.86;100.00;102060.50;5027002;28;20032;-64
2023/04/02 06:27:06;;;;;;;9.88;4.85;;;;;;;4.10;100.00;102061.69;5008859;28;20046;-64
2023/04/02 06:29:38;;;;;;;14.23;4.18;;;;;;;4.15;100.00;102058.28;5027801;28;20036;-63
2023/04/02 06:32:07;;;;;;;8.15;4.00;;;;;;;4.19;100.00;102067.03;5026635;28;20476;-64
2023/04/02 06:34:32;;;;;;;5.63;3.33;;;;;;;4.27;100.00;102077.53;5026515;28;20212;-64
2023/04/02 06:37:04;;;;;;;8.98;4.25;;;;;;;4.34;100.00;102075.88;5009998;28;20133;-64
2023/04/02 06:39:30;;;;;;;7.63;3.60;;;;;;;4.28;100.00;102079.31;5009227;28;20045;-64
2023/04/02 06:42:01;;;;;;;6.22;3.60;;;;;;;4.27;100.00;102087.97;5026859;28;20017;-64
2023/04/02 06:44:34;;;;;;;7.95;3.55;;;;;;;4.32;100.00;102085.41;4993240;28;20021;-64
2023/04/02 06:47:16;;;;;;;6.22;3.33;;;;;;;4.08;100.00;102094.69;5008481;28;20041;-65
2023/04/02 06:49:45;;;;;;;9.10;3.63;;;;;;;3.75;100.00;102104.66;5009298;28;20029;-63
2023/04/02 06:52:46;;;;;;;6.30;3.67;;;;;;;3.76;100.00;102099.47;5008255;28;20022;-65
2023/04/02 06:55:30;;;;;;;8.65;4.00;;;;;;;3.61;100.00;102112.28;4956558;28;20036;-65
2023/04/02 06:57:56;;;;;;;8.48;3.70;;;;;;;3.66;100.00;102119.31;5025994;28;20028;-65
2023/04/02 07:00:32;;;;;;;4.88;3.58;;;;;;;3.69;100.00;102120.19;5023099;28;20017;-63
2023/04/02 07:02:59;;;;;;;6.82;3.53;;;;;;;3.57;100.00;102120.88;5018947;28;20029;-63
2023/04/02 07:05:24;;;;;;;5.35;3.33;;;;;;;3.66;100.00;102121.94;4988754;28;20061;-65
2023/04/02 07:07:50;;;;;;;8.48;4.07;;;;;;;3.81;100.00;102135.16;5007243;28;20072;-64
2023/04/02 07:10:15;;;;;;;6.90;4.03;;;;;;;3.47;100.00;102125.97;5024528;28;20045;-63
2023/04/02 07:12:41;;;;;;;10.13;3.65;;;;;;;3.75;100.00;102141.16;5025533;28;20029;-64
2023/04/02 07:15:08;;;;;;;11.55;3.72;;;;;;;3.76;100.00;102142.91;5024696;28;20025;-64
2023/04/02 07:17:33;;;;;;;5.57;3.70;;;;;;;3.58;100.00;102153.94;5007782;28;20033;-63
2023/04/02 07:19:58;;;;;;;9.00;3.60;;;;;;;3.95;100.00;102164.94;5025544;28;20017;-66
2023/04/02 07:22:25;;;;;;;13.73;4.18;;;;;;;3.83;100.00;102165.63;5028759;28;20025;-65
2023/04/02 07:24:51;;;;;;;11.23;4.00;;;;;;;3.83;100.00;102169.97;5027454;28;20041;-63
2023/04/02 07:27:16;;;;;;;6.95;3.50;;;;;;;3.72;100.00;102167.19;5025320;28;20013;-64
2023/04/02 07:29:41;;;;;;;11.15;3.90;;;;;;;3.64;100.00;102175.75;5025195;28;20431;-66
2023/04/02 07:32:11;;;;;;;8.27;4.40;;;;;;;3.40;100.00;102186.63;5024912;28;20022;-63
2023/04/02 07:34:38;;;;;;;7.10;3.60;;;;;;;3.45;100.00;102189.31;5007595;28;20140;-64
2023/04/02 07:37:04;;;;;;;10.57;3.72;;;;;;;3.40;100.00;102197.94;5024743;28;20026;-65
2023/04/02 07:39:29;;;;;;;8.70;3.78;;;;;;;3.43;100.00;102207.53;5025080;28;20383;-66
2023/04/02 07:41:57;;;;;;;7.57;3.83;;;;;;;3.59;100.00;102205.22;5024792;28;20026;-64
2023/04/02 07:44:22;;;;;;;8.55;3.90;;;;;;;3.84;100.00;102203.91;5025027;28;20056;-64
2023/04/02 07:46:48;;;;;;;10.10;4.00;;;;;;;3.83;100.00;102209.97;5024678;28;20369;-63
2023/04/02 07:49:13;;;;;;;7.13;3.53;;;;;;;3.83;100.00;102214.28;5024846;28;20036;-63
2023/04/02 07:51:38;;;;;;;7.38;3.33;;;;;;;3.98;100.00;102217.16;5025056;28;20021;-64
2023/04/02 07:54:04;;;;;;;12.80;3.40;;;;;;;4.10;100.00;102224.31;5006615;28;20460;-65
2023/04/02 07:56:30;;;;;;;10.60;4.38;;;;;;;4.31;100.00;102222.88;5011229;28;20037;-63
2023/04/02 07:58:56;;;;;;;7.95;3.70;;;;;;;4.28;100.00;102230.66;5013166;28;20018;-64
2023/04/02 08:01:26;;;;;;;7.60;4.05;;;;;;;3.98;100.00;102230.22;5024023;28;20036;-64
2023/04/02 08:03:52;;;;;;;8.30;2.97;;;;;;;3.81;100.00;102229.03;5007617;28;20021;-63
2023/04/02 08:06:18;;;;;;;4.25;2.80;;;;;;;3.97;100.00;102236.25;5028374;28;20575;-65
2023/04/02 08:08:43;;;;;;;12.57;3.80;;;;;;;3.99;100.00;102246.72;5010310;28;20025;-65
2023/04/02 08:11:10;;;;;;;5.15;3.08;;;;;;;3.83;100.00;102249.09;5027836;28;20087;-64
2023/04/02 08:13:36;;;;;;;6.38;3.58;;;;;;;3.80;100.00;102262.06;5028459;28;20023;-64
2023/04/02 08:16:01;;;;;;;8.05;2.88;;;;;;;3.57;100.00;102261.63;5027936;28;20029;-63
2023/04/02 08:18:28;;;;;;;8.13;3.28;;;;;;;4.06;100.00;102265.97;5028253;28;20026;-64
2023/04/02 08:20:53;;;;;;;6.47;3.05;;;;;;;3.89;100.00;102266.56;5028208;28;20664;-64
2023/04/02 08:23:20;;;;;;;5.47;3.13;;;;;;;3.85;100.00;102272.59;5026783;28;20035;-64
2023/04/02 08:25:45;;;;;;;4.50;3.35;;;;;;;3.86;100.00;102280.44;5027273;28;20120;-64
2023/04/02 08:28:11;;;;;;;4.55;3.33;;;;;;;3.75;100.00;102280.22;5027713;28;20049;-64
2023/04/02 08:30:37;;;;;;;7.15;3.30;;;;;;;3.98;100.00;102294.53;5018762;28;20045;-64
2023/04/02 08:33:02;;;;;;;4.75;3.40;;;;;;;3.86;100.00;102301.28;5012375;28;20033;-64
2023/04/02 08:35:28;;;;;;;5.75;3.00;;;;;;;4.02;100.00;102297.22;5027701;28;20219;-65
2023/04/02 08:37:53;;;;;;;7.60;3.08;;;;;;;4.16;100.00;102312.22;5027550;28;20464;-64
2023/04/02 08:40:23;;;;;;;5.72;3.10;;;;;;;4.10;100.00;102314.72;5027066;28;20112;-63
2023/04/02 08:43:12;;;;;;;5.88;3.00;;;;;;;4.04;100.00;102316.38;5009531;28;20021;-64
2023/04/02 08:45:50;;;;;;;6.35;3.13;;;;;;;4.20;100.00;102324.47;5026912;28;20044;-65
2023/04/02 08:48:16;;;;;;;4.23;2.60;;;;;;;4.06;100.00;102334.66;5009537;28;20341;-63
2023/04/02 08:50:43;;;;;;;6.38;2.75;;;;;;;4.26;100.00;102334.13;5009603;28;20024;-64
2023/04/02 08:53:15;;;;;;;4.80;2.42;;;;;;;4.33;100.00;102345.56;5027124;28;20113;-63
2023/04/02 08:55:46;;;;;;;8.00;2.88;;;;;;;4.34;100.00;102342.09;5002610;28;20476;-64
2023/04/02 08:58:36;;;;;;;10.20;3.33;;;;;;;4.64;100.00;102348.66;5022419;28;20183;-69
2023/04/02 09:01:03;;;;;;;6.63;2.40;;;;;;;4.89;100.00;102344.66;5007870;28;20478;-65
2023/04/02 09:03:44;;;;;;;7.80;2.80;;;;;;;4.71;100.00;102345.28;5008632;28;20028;-65
2023/04/02 09:06:12;;;;;;;6.78;2.47;;;;;;;4.74;100.00;102352.28;4990768;28;20099;-63
2023/04/02 09:08:38;;;;;;;5.18;2.67;;;;;;;4.92;100.00;102349.06;5005740;28;20033;-64
2023/04/02 09:11:08;;;;;;;5.13;2.47;;;;;;;4.67;100.00;102351.31;5027531;28;20025;-64
2023/04/02 09:13:36;;;;;;;3.78;2.58;;;;;;;5.13;100.00;102356.31;5027980;28;20057;-64
2023/04/02 09:16:09;;;;;;;4.32;2.50;;;;;;;5.14;100.00;102357.16;4992203;28;20036;-64
2023/04/02 09:18:35;;;;;;;8.85;2.50;;;;;;;5.18;100.00;102366.84;5005225;28;20438;-63
2023/04/02 09:21:16;;;;;;;5.75;2.42;;;;;;;4.90;100.00;102374.25;5009077;28;20033;-64
2023/04/02 09:23:41;;;;;;;5.18;2.88;;;;;;;4.86;100.00;102367.25;5006354;28;20396;-65
2023/04/02 09:26:21;;;;;;;3.30;2.30;;;;;;;4.77;100.00;102386.25;5026689;28;20025;-64
2023/04/02 09:28:47;;;;;;;7.47;2.65;;;;;;;5.12;100.00;102388.50;5024954;28;20029;-65
2023/04/02 09:31:33;;;;;;;4.13;2.40;;;;;;;5.64;100.00;102392.69;5009563;28;20044;-65
2023/04/02 09:33:59;;;;;;;5.85;2.65;;;;;;;5.59;100.00;102396.06;5007066;28;20037;-64
2023/04/02 09:36:36;;;;;;;3.40;1.90;;;;;;;5.35;100.00;102397.50;5009569;28;20044;-64
2023/04/02 09:39:06;;;;;;;4.03;2.20;;;;;;;4.93;100.00;102397.81;5005807;28;20515;-63
2023/04/02 09:41:33;;;;;;;6.78;2.50;;;;;;;4.85;100.00;102402.91;5008722;28;20034;-63
2023/04/02 09:44:12;;;;;;;4.05;2.00;;;;;;;5.09;100.00;102401.53;5027354;28;20030;-64
2023/04/02 09:46:46;;;;;;;5.63;2.60;;;;;;;5.33;100.00;102407.09;5025324;28;20496;-66
2023/04/02 09:49:15;;;;;;;5.43;2.47;;;;;;;5.30;100.00;102403.56;5022047;28;20095;-65
2023/04/02 09:51:40;;;;;;;10.27;2.30;;;;;;;4.88;100.00;102409.94;5009056;28;20415;-63
2023/04/02 09:54:15;;;;;;;8.07;2.70;;;;;;;4.78;100.00;102406.28;5026090;28;20029;-64
2023/04/02 09:57:01;;;;;;;3.97;2.05;;;;;;;5.23;100.00;102417.41;5023541;28;20029;-63
2023/04/02 09:59:27;;;;;;;4.05;2.03;;;;;;;5.34;100.00;102414.06;5024622;28;20041;-63
2023/04/02 10:01:52;;;;;;;6.22;2.40;;;;;;;5.37;100.00;102422.84;5007473;28;20030;-62
2023/04/02 10:04:34;;;;;;;11.20;2.67;;;;;;;5.26;100.00;102411.34;5024210;28;20048;-63
2023/04/02 10:06:59;;;;;;;7.88;2.92;;;;;;;5.40;100.00;102425.50;4986541;28;20038;-65
2023/04/02 10:09:36;;;;;;;7.72;3.15;;;;;;;5.39;100.00;102435.94;4986097;28;20374;-65
2023/04/02 10:12:04;;;;;;;5.13;2.90;;;;;;;5.59;100.00;102436.19;4987476;28;20030;-63
2023/04/02 10:14:33;;;;;;;6.53;2.78;;;;;;;5.91;100.00;102437.44;4987034;28;20544;-64
2023/04/02 10:17:04;;;;;;;5.35;2.47;;;;;;;5.86;100.00;102428.66;4983434;28;20044;-66
2023/04/02 10:19:51;;;;;;;5.30;2.33;;;;;;;5.70;100.00;102444.16;4972472;28;20085;-63
2023/04/02 10:22:19;;;;;;;9.13;2.40;;;;;;;5.87;100.00;102439.13;4985217;28;20031;-66
2023/04/02 10:24:44;;;;;;;5.43;2.38;;;;;;;6.18;100.00;102441.25;4986711;28;20030;-62
2023/04/02 10:27:21;;;;;;;9.23;2.70;;;;;;;6.04;100.00;102449.84;4985521;28;20471;-63
2023/04/02 10:30:00;;;;;;;10.00;2.03;;;;;;;5.99;100.00;102454.09;4986974;28;20614;-64
2023/04/02 10:32:43;;;;;;;9.18;3.25;;;;;;;6.31;100.00;102453.59;4986776;28;20484;-62
2023/04/02 10:35:33;;;;;;;11.18;2.47;;;;;;;6.22;100.00;102458.75;4985285;28;20105;-62
2023/04/02 10:38:17;;;;;;;5.32;2.30;;;;;;;6.48;100.00;102452.00;4987234;28;20485;-64
2023/04/02 10:40:48;;;;;;;6.60;2.20;;;;;;;6.64;100.00;102472.25;4986401;28;20109;-64
2023/04/02 10:43:47;;;;;;;4.90;2.17;;;;;;;6.76;100.00;102471.47;4974239;28;20477;-62
2023/04/02 10:46:21;;;;;;;8.93;2.60;;;;;;;6.64;100.00;102471.34;4967025;28;20049;-62
2023/04/02 10:48:58;;;;;;;10.30;2.50;;;;;;;6.84;100.00;102474.16;4967379;28;20047;-63
2023/04/02 10:51:54;;;;;;;6.30;2.20;;;;;;;6.92;100.00;102477.72;4967734;28;20045;-63
2023/04/02 10:54:32;;;;;;;4.70;2.00;;;;;;;6.93;100.00;102483.84;4952251;28;20042;-65
2023/04/02 10:57:13;;;;;;;5.93;2.40;;;;;;;6.88;99.18;102485.53;4984311;28;20585;-64
2023/04/02 10:59:43;;;;;;;6.00;2.05;;;;;;;7.24;98.98;102491.03;4977732;28;20041;-65
2023/04/02 11:02:27;;;;;;;4.22;1.83;;;;;;;7.06;97.15;102490.03;4984439;28;20042;-62
2023/04/02 11:04:53;;;;;;;6.68;3.33;;;;;;;7.19;99.20;102491.00;4987953;28;20108;-64
2023/04/02 11:07:23;;;;;;;6.05;2.00;;;;;;;7.37;99.02;102499.88;5003400;28;20440;-64
2023/04/02 11:09:51;;;;;;;7.97;2.05;;;;;;;7.59;98.62;102501.75;5001019;28;20048;-65
2023/04/02 11:12:23;;;;;;;4.93;1.60;;;;;;;8.02;96.57;102505.44;4990583;28;20030;-63
2023/04/02 11:14:49;;;;;;;5.57;1.80;;;;;;;8.23;94.94;102503.75;5003853;28;20018;-63
2023/04/02 11:17:18;;;;;;;3.28;1.92;;;;;;;8.38;93.84;102496.78;5000110;28;20022;-64
2023/04/02 11:19:43;;;;;;;5.97;2.22;;;;;;;8.19;94.70;102507.25;4993930;28;20484;-61
2023/04/02 11:22:24;;;;;;;5.68;1.73;;;;;;;8.06;96.13;102512.44;5005920;28;20040;-62
2023/04/02 11:24:51;;;;;;;6.53;2.47;;;;;;;8.03;98.03;102507.19;5005459;28;20033;-64
2023/04/02 11:27:29;;;;;;;5.43;1.88;;;;;;;8.38;95.90;102508.16;5005865;28;20033;-63
2023/04/02 11:30:17;;;;;;;5.15;2.00;;;;;;;8.38;92.47;102512.53;5005690;28;20101;-61
2023/04/02 11:32:46;;;;;;;10.07;1.88;;;;;;;8.70;92.26;102514.41;5006291;28;20492;-62
2023/04/02 11:35:30;;;;;;;3.33;1.92;;;;;;;8.41;92.63;102523.06;5004512;28;20030;-62
2023/04/02 11:38:22;;;;;;;6.22;1.80;;;;;;;8.41;92.06;102518.69;5007554;28;20076;-62
2023/04/02 11:40:51;;;;;;;3.15;2.20;;;;;;;8.68;91.61;102516.13;5008596;28;20808;-63
2023/04/02 11:43:50;;;;;;;4.82;1.60;;;;;;;8.64;89.79;102517.00;5010161;28;20101;-62
2023/04/02 11:46:15;;;;;;;6.72;1.63;;;;;;;8.50;89.11;102515.19;4987220;28;20046;-62
2023/04/02 11:48:41;;;;;;;4.15;1.75;;;;;;;8.42;87.92;102515.19;5009299;28;20531;-62
2023/04/02 11:51:29;;;;;;;5.55;1.73;;;;;;;8.31;89.58;102516.91;5009630;28;20105;-63
2023/04/02 11:53:57;;;;;;;4.70;1.63;;;;;;;8.46;91.75;102511.69;5009043;28;20033;-63